createdAt,value
2022-10-08T00:01:16.363Z,100575.31
2022-10-08T00:03:47.648Z,100566.78
2022-10-08T00:06:18.264Z,100569.38
2022-10-08T00:08:50.548Z,100569.41
2022-10-08T00:11:21.441Z,100564.22
2022-10-08T00:13:50.824Z,100549.63
2022-10-08T00:16:30.516Z,100552.13
2022-10-08T00:19:04.105Z,100557.19
2022-10-08T00:21:36.676Z,100551.91
2022-10-08T00:24:06.099Z,100547.50
2022-10-08T00:26:39.737Z,100511.41
2022-10-08T00:29:13.595Z,100488.28
2022-10-08T00:31:44.099Z,100544.84
2022-10-08T00:34:20.179Z,100546.59
2022-10-08T00:36:51.666Z,100541.38
2022-10-08T00:39:20.544Z,100520.78
2022-10-08T00:41:52.548Z,100539.72
2022-10-08T00:44:47.990Z,100533.59
2022-10-08T00:47:33.183Z,100524.16
2022-10-08T00:50:23.810Z,100532.78
2022-10-08T00:53:10.784Z,100534.53
2022-10-08T00:55:43.665Z,100496.66
2022-10-08T00:58:31.283Z,100501.81
2022-10-08T01:00:58.873Z,100524.19
2022-10-08T01:03:26.414Z,100534.56
2022-10-08T01:06:20.945Z,100470.13
2022-10-08T01:09:09.658Z,100522.50
2022-10-08T01:11:55.305Z,100484.69
2022-10-08T01:14:45.232Z,100513.91
2022-10-08T01:17:30.569Z,100508.72
2022-10-08T01:20:00.544Z,100507.03
2022-10-08T01:22:46.344Z,100505.28
2022-10-08T01:25:32.908Z,100514.81
2022-10-08T01:28:15.212Z,100509.66
2022-10-08T01:30:50.861Z,100508.84
2022-10-08T01:33:32.386Z,100467.63
2022-10-08T01:36:02.755Z,100407.56
2022-10-08T01:38:33.758Z,100495.06
2022-10-08T01:41:06.787Z,100485.66
2022-10-08T01:43:38.437Z,100497.66
2022-10-08T01:46:31.904Z,100499.41
2022-10-08T01:49:07.623Z,100456.44
2022-10-08T01:51:47.386Z,100489.91
2022-10-08T01:54:17.123Z,100481.34
2022-10-08T01:56:47.287Z,100488.19
2022-10-08T01:59:23.226Z,100432.50
2022-10-08T02:01:59.501Z,100483.06
2022-10-08T02:04:34.729Z,100469.38
2022-10-08T02:07:09.315Z,100479.69
2022-10-08T02:09:42.233Z,100466.03
2022-10-08T02:12:10.506Z,100447.16
2022-10-08T02:14:44.785Z,100483.25
2022-10-08T02:17:45.186Z,100479.03
2022-10-08T02:20:47.864Z,100477.31
2022-10-08T02:23:39.739Z,100479.94
2022-10-08T02:26:14.837Z,100477.34
2022-10-08T02:29:00.952Z,100484.31
2022-10-08T02:31:43.150Z,100481.75
2022-10-08T02:34:18.426Z,100483.53
2022-10-08T02:36:54.306Z,100450.03
2022-10-08T02:39:25.225Z,100444.91
2022-10-08T02:41:57.183Z,100464.53
2022-10-08T02:44:32.863Z,100468.84
2022-10-08T02:47:04.804Z,100469.72
2022-10-08T02:49:37.990Z,100458.50
2022-10-08T02:52:08.145Z,100468.91
2022-10-08T02:54:39.361Z,100444.03
2022-10-08T02:57:22.150Z,100453.44
2022-10-08T02:59:49.358Z,100445.72
2022-10-08T03:02:37.417Z,100453.50
2022-10-08T03:05:14.306Z,100465.50
2022-10-08T03:07:42.425Z,100428.59
2022-10-08T03:10:10.343Z,100462.06
2022-10-08T03:12:37.555Z,100401.88
2022-10-08T03:15:05.304Z,100461.94
2022-10-08T03:17:37.824Z,100457.63
2022-10-08T03:20:07.052Z,100464.50
2022-10-08T03:22:34.753Z,100469.69
2022-10-08T03:25:02.342Z,100470.56
2022-10-08T03:27:29.784Z,100458.50
2022-10-08T03:29:59.703Z,100470.53
2022-10-08T03:32:27.545Z,100469.69
2022-10-08T03:34:54.812Z,100461.91
2022-10-08T03:37:22.217Z,100465.41
2022-10-08T03:39:49.433Z,100461.03
2022-10-08T03:42:16.470Z,100460.19
2022-10-08T03:44:43.649Z,100403.59
2022-10-08T03:47:10.932Z,100467.06
2022-10-08T03:49:38.107Z,100461.06
2022-10-08T03:52:05.475Z,100437.84
2022-10-08T03:54:36.265Z,100426.72
2022-10-08T03:57:04.623Z,100469.69
2022-10-08T03:59:32.025Z,100466.25
2022-10-08T04:01:59.217Z,100462.78
2022-10-08T04:04:26.395Z,100439.53
2022-10-08T04:06:53.403Z,100420.66
2022-10-08T04:09:20.460Z,100452.38
2022-10-08T04:11:47.508Z,100407.75
2022-10-08T04:14:14.618Z,100428.34
2022-10-08T04:16:41.918Z,100446.31
2022-10-08T04:19:11.874Z,100441.97
2022-10-08T04:21:39.105Z,100429.06
2022-10-08T04:24:06.436Z,100415.31
2022-10-08T04:26:33.619Z,100400.72
2022-10-08T04:29:00.836Z,100441.16
2022-10-08T04:31:27.992Z,100446.34
2022-10-08T04:33:55.367Z,100409.38
2022-10-08T04:36:24.718Z,100424.84
2022-10-08T04:38:51.982Z,100385.31
2022-10-08T04:41:22.925Z,100422.22
2022-10-08T04:43:51.390Z,100427.28
2022-10-08T04:46:21.022Z,100421.25
2022-10-08T04:48:51.864Z,100374.09
2022-10-08T04:51:19.714Z,100398.94
2022-10-08T04:53:47.303Z,100397.25
2022-10-08T04:56:19.874Z,100422.97
2022-10-08T04:58:47.716Z,100415.25
2022-10-08T05:01:17.816Z,100410.94
2022-10-08T05:03:50.454Z,100416.13
2022-10-08T05:06:20.475Z,100418.72
2022-10-08T05:08:48.625Z,100416.19
2022-10-08T05:11:16.946Z,100434.31
2022-10-08T05:13:49.145Z,100430.88
2022-10-08T05:16:18.534Z,100431.78
2022-10-08T05:18:46.598Z,100411.19
2022-10-08T05:21:16.905Z,100423.22
2022-10-08T05:23:44.235Z,100425.84
2022-10-08T05:26:16.815Z,100410.41
2022-10-08T05:28:45.096Z,100425.00
2022-10-08T05:31:12.433Z,100425.00
2022-10-08T05:33:39.912Z,100430.16
2022-10-08T05:36:16.258Z,100432.72
2022-10-08T05:38:46.122Z,100416.38
2022-10-08T05:41:16.335Z,100420.69
2022-10-08T05:43:44.217Z,100423.25
2022-10-08T05:46:12.304Z,100431.75
2022-10-08T05:48:40.268Z,100417.03
2022-10-08T05:51:13.550Z,100417.84
2022-10-08T05:53:43.564Z,100422.13
2022-10-08T05:56:12.873Z,100380.03
2022-10-08T05:58:41.437Z,100405.66
2022-10-08T06:01:20.481Z,100405.53
2022-10-08T06:03:56.539Z,100402.00
2022-10-08T06:06:24.903Z,100401.94
2022-10-08T06:09:02.238Z,100405.28
2022-10-08T06:11:31.899Z,100358.81
2022-10-08T06:14:01.266Z,100413.69
2022-10-08T06:16:30.232Z,100422.25
2022-10-08T06:18:57.952Z,100429.97
2022-10-08T06:21:27.233Z,100398.16
2022-10-08T06:23:59.427Z,100417.78
2022-10-08T06:26:35.627Z,100308.69
2022-10-08T06:29:07.979Z,100415.72
2022-10-08T06:31:36.109Z,100295.59
2022-10-08T06:34:04.990Z,100311.66
2022-10-08T06:36:33.864Z,100316.72
2022-10-08T06:39:04.106Z,100402.28
2022-10-08T06:41:33.436Z,100421.91
2022-10-08T06:44:01.835Z,100421.75
2022-10-08T06:46:31.488Z,100424.13
2022-10-08T06:48:59.363Z,100398.19
2022-10-08T06:51:26.675Z,100410.00
2022-10-08T06:53:55.746Z,100399.53
2022-10-08T06:56:24.741Z,100412.31
2022-10-08T06:58:52.638Z,100424.28
2022-10-08T07:01:29.110Z,100423.19
2022-10-08T07:04:01.017Z,100388.78
2022-10-08T07:06:28.713Z,100370.59
2022-10-08T07:08:58.517Z,100420.19
2022-10-08T07:11:26.989Z,100424.47
2022-10-08T07:13:57.944Z,100427.91
2022-10-08T07:16:26.866Z,100383.41
2022-10-08T07:18:56.784Z,100429.53
2022-10-08T07:21:24.425Z,100403.81
2022-10-08T07:23:51.983Z,100374.44
2022-10-08T07:26:27.183Z,100413.78
2022-10-08T07:28:58.872Z,100412.84
2022-10-08T07:31:34.349Z,100415.31
2022-10-08T07:34:04.713Z,100420.34
2022-10-08T07:36:32.628Z,100413.34
2022-10-08T07:39:06.304Z,100387.53
2022-10-08T07:41:33.794Z,100422.25
2022-10-08T07:44:02.486Z,100416.81
2022-10-08T07:46:31.399Z,100414.03
2022-10-08T07:48:59.569Z,100405.97
2022-10-08T07:51:27.809Z,100394.44
2022-10-08T07:54:00.117Z,100396.16
2022-10-08T07:56:29.828Z,100408.72
2022-10-08T07:58:58.113Z,100406.75
2022-10-08T08:01:30.308Z,100398.78
2022-10-08T08:04:00.212Z,100419.03
2022-10-08T08:06:27.379Z,100404.69
2022-10-08T08:08:55.005Z,100414.53
2022-10-08T08:11:24.887Z,100390.44
2022-10-08T08:13:52.915Z,100398.22
2022-10-08T08:16:25.812Z,100408.59
2022-10-08T08:18:57.438Z,100409.59
2022-10-08T08:21:28.108Z,100409.31
2022-10-08T08:23:57.836Z,100396.56
2022-10-08T08:26:30.427Z,100390.25
2022-10-08T08:29:00.243Z,100409.47
2022-10-08T08:31:29.875Z,100414.59
2022-10-08T08:33:59.761Z,100409.28
2022-10-08T08:36:30.264Z,100409.19
2022-10-08T08:38:57.868Z,100390.25
2022-10-08T08:41:40.929Z,100406.47
2022-10-08T08:44:18.958Z,100408.78
2022-10-08T08:47:04.630Z,100407.16
2022-10-08T08:49:42.733Z,100398.00
2022-10-08T08:52:14.894Z,100318.84
2022-10-08T08:54:43.563Z,100379.84
2022-10-08T08:57:25.067Z,100404.97
2022-10-08T08:59:56.429Z,100390.97
2022-10-08T09:02:29.077Z,100395.63
2022-10-08T09:05:01.708Z,100409.03
2022-10-08T09:07:39.446Z,100401.66
2022-10-08T09:10:09.673Z,100410.19
2022-10-08T09:12:47.247Z,100375.47
2022-10-08T09:15:21.997Z,100371.69
2022-10-08T09:17:54.479Z,100412.31
2022-10-08T09:20:26.114Z,100381.06
2022-10-08T09:22:54.421Z,100386.59
2022-10-08T09:25:25.559Z,100399.59
2022-10-08T09:28:04.525Z,100400.75
2022-10-08T09:30:41.069Z,100370.19
2022-10-08T09:33:08.463Z,100392.28
2022-10-08T09:35:46.226Z,100291.69
2022-10-08T09:38:39.165Z,100390.81
2022-10-08T09:41:19.442Z,100399.41
2022-10-08T09:44:10.548Z,100408.16
2022-10-08T09:46:37.830Z,100399.50
2022-10-08T09:49:34.183Z,100385.63
2022-10-08T09:52:07.759Z,100373.69
2022-10-08T09:54:41.906Z,100382.97
2022-10-08T09:57:09.215Z,100341.47
2022-10-08T09:59:48.424Z,100399.59
2022-10-08T10:02:34.388Z,100393.41
2022-10-08T10:05:04.739Z,100400.38
2022-10-08T10:07:44.943Z,100388.28
2022-10-08T10:10:33.307Z,100405.84
2022-10-08T10:13:10.062Z,100397.41
2022-10-08T10:15:43.861Z,100411.56
2022-10-08T10:18:26.975Z,100410.03
2022-10-08T10:21:01.856Z,100406.63
2022-10-08T10:23:44.110Z,100356.09
2022-10-08T10:26:18.165Z,100401.41
2022-10-08T10:28:59.295Z,100391.97
2022-10-08T10:31:44.517Z,100387.63
2022-10-08T10:34:18.236Z,100398.53
2022-10-08T10:36:53.028Z,100373.81
2022-10-08T10:39:42.019Z,100395.91
2022-10-08T10:42:29.545Z,100358.25
2022-10-08T10:44:58.885Z,100365.63
2022-10-08T10:47:32.197Z,100373.69
2022-10-08T10:50:02.334Z,100333.38
2022-10-08T10:52:48.000Z,100386.00
2022-10-08T10:55:40.428Z,100385.91
2022-10-08T10:58:18.867Z,100392.81
2022-10-08T11:01:16.689Z,100386.00
2022-10-08T11:03:59.263Z,100385.44
2022-10-08T11:07:00.662Z,100377.75
2022-10-08T11:10:11.907Z,100374.44
2022-10-08T11:12:51.716Z,100382.19
2022-10-08T11:15:50.823Z,100389.09
2022-10-08T11:18:53.159Z,100381.28
2022-10-08T11:21:44.648Z,100390.03
2022-10-08T11:24:49.076Z,100381.38
2022-10-08T11:27:36.324Z,100386.81
2022-10-08T11:30:14.905Z,100379.03
2022-10-08T11:32:46.462Z,100378.16
2022-10-08T11:35:31.912Z,100376.25
2022-10-08T11:38:15.145Z,100372.81
2022-10-08T11:40:46.757Z,100335.97
2022-10-08T11:43:33.565Z,100380.22
2022-10-08T11:46:29.002Z,100375.75
2022-10-08T11:48:59.165Z,100374.78
2022-10-08T11:51:26.316Z,100377.16
2022-10-08T11:54:16.870Z,100359.13
2022-10-08T11:56:47.475Z,100371.09
2022-10-08T11:59:32.773Z,100360.53
2022-10-08T12:02:07.638Z,100340.81
2022-10-08T12:04:38.073Z,100344.31
2022-10-08T12:07:06.832Z,100365.97
2022-10-08T12:10:08.306Z,100361.59
2022-10-08T12:13:00.074Z,100344.50
2022-10-08T12:15:28.016Z,100353.75
2022-10-08T12:18:26.329Z,100322.97
2022-10-08T12:21:20.814Z,100353.72
2022-10-08T12:23:47.932Z,100344.22
2022-10-08T12:26:16.715Z,100356.34
2022-10-08T12:28:43.954Z,100342.50
2022-10-08T12:31:40.348Z,100324.03
2022-10-08T12:34:17.667Z,100356.13
2022-10-08T12:37:16.558Z,100310.75
2022-10-08T12:39:47.548Z,100343.59
2022-10-08T12:42:26.143Z,100337.59
2022-10-08T12:45:08.703Z,100349.69
2022-10-08T12:47:38.734Z,100350.72
2022-10-08T12:50:24.203Z,100344.75
2022-10-08T12:52:53.084Z,100323.31
2022-10-08T12:55:23.582Z,100343.88
2022-10-08T12:57:52.603Z,100336.97
2022-10-08T13:00:26.108Z,100344.09
2022-10-08T13:03:03.874Z,100327.78
2022-10-08T13:05:34.343Z,100341.38
2022-10-08T13:08:29.593Z,100340.59
2022-10-08T13:10:58.845Z,100295.34
2022-10-08T13:13:39.536Z,100327.09
2022-10-08T13:16:08.762Z,100346.75
2022-10-08T13:18:37.779Z,100350.13
2022-10-08T13:21:10.543Z,100350.81
2022-10-08T13:23:44.108Z,100349.09
2022-10-08T13:26:43.837Z,100350.81
2022-10-08T13:29:23.069Z,100363.97
2022-10-08T13:32:12.107Z,100360.56
2022-10-08T13:34:48.864Z,100362.31
2022-10-08T13:37:38.319Z,100354.81
2022-10-08T13:40:18.517Z,100368.56
2022-10-08T13:42:52.745Z,100366.00
2022-10-08T13:45:22.864Z,100365.16
2022-10-08T13:47:51.190Z,100331.88
2022-10-08T13:50:20.495Z,100355.97
2022-10-08T13:52:57.573Z,100370.47
2022-10-08T13:55:27.709Z,100373.97
2022-10-08T13:57:56.237Z,100377.47
2022-10-08T14:00:23.983Z,100344.94
2022-10-08T14:02:54.073Z,100368.94
2022-10-08T14:05:22.863Z,100372.38
2022-10-08T14:08:00.031Z,100381.00
2022-10-08T14:10:27.773Z,100346.81
2022-10-08T14:12:55.033Z,100377.69
2022-10-08T14:15:22.345Z,100367.59
2022-10-08T14:17:53.626Z,100304.34
2022-10-08T14:20:20.745Z,100341.97
2022-10-08T14:22:48.143Z,100379.66
2022-10-08T14:25:23.083Z,100374.53
2022-10-08T14:27:51.091Z,100330.06
2022-10-08T14:30:19.035Z,100366.84
2022-10-08T14:32:46.810Z,100368.69
2022-10-08T14:35:13.976Z,100374.78
2022-10-08T14:37:41.513Z,100346.53
2022-10-08T14:40:12.290Z,100373.09
2022-10-08T14:42:39.611Z,100374.78
2022-10-08T14:45:07.520Z,100366.25
2022-10-08T14:47:34.735Z,100369.47
2022-10-08T14:50:02.077Z,100376.31
2022-10-08T14:52:29.185Z,100379.88
2022-10-08T14:54:56.363Z,100307.34
2022-10-08T14:57:23.515Z,100347.69
2022-10-08T14:59:50.914Z,100384.47
2022-10-08T15:02:18.167Z,100387.22
2022-10-08T15:04:45.476Z,100388.09
2022-10-08T15:07:12.553Z,100389.03
2022-10-08T15:09:41.044Z,100338.84
2022-10-08T15:12:08.508Z,100388.41
2022-10-08T15:14:38.228Z,100382.53
2022-10-08T15:17:05.747Z,100391.28
2022-10-08T15:19:32.923Z,100393.06
2022-10-08T15:21:59.948Z,100383.66
2022-10-08T15:24:27.230Z,100380.28
2022-10-08T15:26:54.864Z,100391.59
2022-10-08T15:29:21.966Z,100394.34
2022-10-08T15:31:52.879Z,100391.78
2022-10-08T15:34:20.987Z,100383.22
2022-10-08T15:36:48.453Z,100390.16
2022-10-08T15:39:19.674Z,100384.16
2022-10-08T15:41:49.989Z,100349.13
2022-10-08T15:44:18.102Z,100396.34
2022-10-08T15:46:50.715Z,100399.84
2022-10-08T15:49:17.756Z,100385.25
2022-10-08T15:51:44.794Z,100398.34
2022-10-08T15:54:11.928Z,100392.34
2022-10-08T15:56:39.064Z,100392.41
2022-10-08T15:59:06.432Z,100397.63
2022-10-08T16:01:33.737Z,100398.66
2022-10-08T16:04:01.244Z,100358.59
2022-10-08T16:06:34.566Z,100406.56
2022-10-08T16:09:03.344Z,100399.94
2022-10-08T16:11:35.189Z,100410.16
2022-10-08T16:14:14.369Z,100408.50
2022-10-08T16:16:42.930Z,100406.88
2022-10-08T16:19:13.794Z,100417.31
2022-10-08T16:21:41.228Z,100419.09
2022-10-08T16:24:08.606Z,100423.53
2022-10-08T16:26:37.313Z,100423.59
2022-10-08T16:29:08.204Z,100428.75
2022-10-08T16:31:37.303Z,100435.72
2022-10-08T16:34:07.148Z,100434.88
2022-10-08T16:36:36.751Z,100450.47
2022-10-08T16:39:06.506Z,100402.44
2022-10-08T16:41:35.782Z,100447.06
2022-10-08T16:44:14.688Z,100455.78
2022-10-08T16:46:45.350Z,100461.06
2022-10-08T16:49:22.822Z,100462.75
2022-10-08T16:51:52.444Z,100468.88
2022-10-08T16:54:19.948Z,100475.00
2022-10-08T16:56:47.875Z,100475.09
2022-10-08T16:59:20.840Z,100478.63
2022-10-08T17:01:51.020Z,100488.97
2022-10-08T17:04:20.482Z,100491.56
2022-10-08T17:06:48.115Z,100492.56
2022-10-08T17:09:17.870Z,100496.94
2022-10-08T17:11:45.234Z,100515.19
2022-10-08T17:14:13.084Z,100515.25
2022-10-08T17:16:43.337Z,100485.66
2022-10-08T17:19:10.427Z,100535.53
2022-10-08T17:21:38.515Z,100547.81
2022-10-08T17:24:06.392Z,100555.78
2022-10-08T17:26:33.493Z,100540.50
2022-10-08T17:29:09.785Z,100553.59
2022-10-08T17:31:37.824Z,100539.09
2022-10-08T17:34:06.026Z,100565.09
2022-10-08T17:36:39.147Z,100553.06
2022-10-08T17:39:09.306Z,100555.69
2022-10-08T17:41:38.930Z,100563.59
2022-10-08T17:44:08.522Z,100568.84
2022-10-08T17:46:39.833Z,100567.16
2022-10-08T17:49:07.206Z,100569.81
2022-10-08T17:51:34.714Z,100570.72
2022-10-08T17:54:07.863Z,100572.66
2022-10-08T17:56:35.408Z,100593.31
2022-10-08T17:59:03.347Z,100591.63
2022-10-08T18:01:36.273Z,100598.56
2022-10-08T18:04:08.759Z,100598.59
2022-10-08T18:06:38.877Z,100599.50
2022-10-08T18:09:08.545Z,100602.25
2022-10-08T18:11:37.996Z,100604.00
2022-10-08T18:14:07.024Z,100604.06
2022-10-08T18:16:34.380Z,100617.84
2022-10-08T18:19:06.197Z,100616.19
2022-10-08T18:21:35.669Z,100575.06
2022-10-08T18:24:03.314Z,100624.97
2022-10-08T18:26:34.748Z,100616.25
2022-10-08T18:29:05.277Z,100626.69
2022-10-08T18:31:33.281Z,100619.88
2022-10-08T18:34:23.354Z,100623.38
2022-10-08T18:36:50.545Z,100623.41
2022-10-08T18:39:24.794Z,100626.84
2022-10-08T18:41:55.707Z,100631.25
2022-10-08T18:44:25.741Z,100638.16
2022-10-08T18:46:54.027Z,100632.19
2022-10-08T18:49:30.895Z,100627.97
2022-10-08T18:51:58.913Z,100639.28
2022-10-08T18:54:26.051Z,100632.34
2022-10-08T18:56:53.266Z,100627.19
2022-10-08T18:59:20.582Z,100634.97
2022-10-08T19:01:48.740Z,100637.56
2022-10-08T19:04:21.255Z,100623.88
2022-10-08T19:06:49.913Z,100644.53
2022-10-08T19:09:17.231Z,100614.53
2022-10-08T19:11:50.024Z,100644.69
2022-10-08T19:14:20.049Z,100653.34
2022-10-08T19:16:48.074Z,100609.59
2022-10-08T19:19:20.464Z,100656.94
2022-10-08T19:21:48.553Z,100620.06
2022-10-08T19:24:21.274Z,100659.66
2022-10-08T19:26:49.685Z,100661.34
2022-10-08T19:29:22.506Z,100671.72
2022-10-08T19:31:50.469Z,100671.72
2022-10-08T19:34:25.245Z,100677.78
2022-10-08T19:36:53.095Z,100630.59
2022-10-08T19:39:23.875Z,100630.66
2022-10-08T19:41:51.348Z,100691.72
2022-10-08T19:44:19.271Z,100606.69
2022-10-08T19:46:46.853Z,100690.00
2022-10-08T19:49:14.599Z,100696.09
2022-10-08T19:51:42.064Z,100669.47
2022-10-08T19:54:09.409Z,100666.88
2022-10-08T19:56:36.984Z,100683.22
2022-10-08T19:59:04.477Z,100702.16
2022-10-08T20:01:35.139Z,100716.00
2022-10-08T20:04:04.429Z,100705.78
2022-10-08T20:06:34.948Z,100724.72
2022-10-08T20:09:04.045Z,100725.63
2022-10-08T20:11:32.798Z,100726.47
2022-10-08T20:14:01.216Z,100729.09
2022-10-08T20:16:35.413Z,100735.19
2022-10-08T20:19:06.606Z,100732.59
2022-10-08T20:21:37.259Z,100737.81
2022-10-08T20:24:05.293Z,100735.22
2022-10-08T20:26:35.504Z,100742.13
2022-10-08T20:29:11.504Z,100730.06
2022-10-08T20:31:50.494Z,100726.66
2022-10-08T20:34:20.626Z,100735.28
2022-10-08T20:36:48.972Z,100699.19
2022-10-08T20:39:18.234Z,100744.84
2022-10-08T20:41:45.785Z,100741.38
2022-10-08T20:44:13.758Z,100752.59
2022-10-08T20:46:41.350Z,100761.25
2022-10-08T20:49:10.855Z,100749.13
2022-10-08T20:51:40.318Z,100753.47
2022-10-08T20:54:09.632Z,100754.34
2022-10-08T20:56:40.051Z,100750.00
2022-10-08T20:59:08.847Z,100752.59
2022-10-08T21:01:38.574Z,100755.25
2022-10-08T21:04:07.257Z,100776.81
2022-10-08T21:06:43.831Z,100772.50
2022-10-08T21:09:12.356Z,100771.69
2022-10-08T21:11:40.194Z,100775.09
2022-10-08T21:14:10.114Z,100778.56
2022-10-08T21:16:39.958Z,100786.34
2022-10-08T21:19:11.709Z,100785.50
2022-10-08T21:21:39.615Z,100766.59
2022-10-08T21:24:07.510Z,100789.00
2022-10-08T21:26:39.773Z,100785.53
2022-10-08T21:29:10.505Z,100791.59
2022-10-08T21:31:39.812Z,100776.13
2022-10-08T21:34:07.558Z,100784.72
2022-10-08T21:36:39.027Z,100784.75
2022-10-08T21:39:07.844Z,100797.69
2022-10-08T21:41:37.153Z,100789.06
2022-10-08T21:44:06.743Z,100793.38
2022-10-08T21:46:36.901Z,100798.59
2022-10-08T21:49:07.564Z,100771.06
2022-10-08T21:51:35.442Z,100802.91
2022-10-08T21:54:05.285Z,100799.50
2022-10-08T21:56:35.033Z,100811.59
2022-10-08T21:59:04.028Z,100806.44
2022-10-08T22:01:46.625Z,100827.16
2022-10-08T22:04:19.254Z,100821.13
2022-10-08T22:06:49.063Z,100830.63
2022-10-08T22:09:19.446Z,100822.00
2022-10-08T22:11:46.796Z,100828.91
2022-10-08T22:14:14.570Z,100820.31
2022-10-08T22:16:41.917Z,100809.16
2022-10-08T22:19:09.589Z,100832.41
2022-10-08T22:21:37.240Z,100842.78
2022-10-08T22:24:04.870Z,100837.63
2022-10-08T22:26:34.635Z,100841.06
2022-10-08T22:29:02.325Z,100847.97
2022-10-08T22:31:29.548Z,100849.72
2022-10-08T22:33:56.884Z,100858.34
2022-10-08T22:36:26.361Z,100835.06
2022-10-08T22:38:54.557Z,100853.19
2022-10-08T22:41:27.091Z,100857.50
2022-10-08T22:43:54.266Z,100858.38
2022-10-08T22:46:27.389Z,100853.19
2022-10-08T22:49:03.271Z,100860.09
2022-10-08T22:51:30.838Z,100860.13
2022-10-08T22:53:58.593Z,100870.44
2022-10-08T22:56:28.402Z,100862.69
2022-10-08T22:58:56.437Z,100870.44
2022-10-08T23:01:25.526Z,100870.47
2022-10-08T23:03:53.833Z,100873.03
2022-10-08T23:06:24.034Z,100885.13
2022-10-08T23:08:57.467Z,100886.00
2022-10-08T23:11:25.051Z,100879.06
2022-10-08T23:13:53.843Z,100886.00
2022-10-08T23:16:21.491Z,100884.25
2022-10-08T23:18:56.668Z,100886.00
2022-10-08T23:21:24.794Z,100886.00
2022-10-08T23:23:53.974Z,100899.78
2022-10-08T23:26:22.343Z,100898.06
2022-10-08T23:28:58.422Z,100896.34
2022-10-08T23:31:28.462Z,100896.34
2022-10-08T23:33:56.473Z,100898.06
2022-10-08T23:36:26.235Z,100906.69
2022-10-08T23:38:53.640Z,100901.50
2022-10-08T23:41:20.986Z,100853.16
2022-10-08T23:43:49.706Z,100903.22
2022-10-08T23:46:20.513Z,100865.25
2022-10-08T23:48:49.013Z,100912.69
2022-10-08T23:51:17.030Z,100913.56
2022-10-08T23:53:45.144Z,100916.16
2022-10-08T23:56:12.595Z,100912.69
2022-10-08T23:58:40.128Z,100924.78
